sensor_id;sensor_type;location;lat;lon;timestamp;P1;durP1;ratioP1;P2;durP2;ratioP2
21354;SDS011;10835;50.148;19.760;2022-12-18T00:00:03;9.30;;;5.05;;
21354;SDS011;10835;50.148;19.760;2022-12-18T00:02:39;10.18;;;4.93;;
21354;SDS011;10835;50.148;19.760;2022-12-18T00:05:08;11.20;;;5.85;;
21354;SDS011;10835;50.148;19.760;2022-12-18T00:07:36;18.35;;;6.75;;
21354;SDS011;10835;50.148;19.760;2022-12-18T00:10:05;22.15;;;7.75;;
21354;SDS011;10835;50.148;19.760;2022-12-18T00:12:34;15.47;;;7.17;;
21354;SDS011;10835;50.148;19.760;2022-12-18T00:15:02;12.30;;;5.95;;
21354;SDS011;10835;50.148;19.760;2022-12-18T00:17:30;17.13;;;6.47;;
21354;SDS011;10835;50.148;19.760;2022-12-18T00:19:58;11.45;;;5.70;;
21354;SDS011;10835;50.148;19.760;2022-12-18T00:22:27;9.95;;;4.68;;
21354;SDS011;10835;50.148;19.760;2022-12-18T00:24:55;17.48;;;6.70;;
21354;SDS011;10835;50.148;19.760;2022-12-18T00:27:23;6.97;;;4.50;;
21354;SDS011;10835;50.148;19.760;2022-12-18T00:29:51;13.93;;;5.75;;
21354;SDS011;10835;50.148;19.760;2022-12-18T00:32:19;18.77;;;9.02;;
21354;SDS011;10835;50.148;19.760;2022-12-18T00:34:47;17.15;;;7.45;;
21354;SDS011;10835;50.148;19.760;2022-12-18T00:37:15;12.20;;;6.07;;
21354;SDS011;10835;50.148;19.760;2022-12-18T00:39:51;9.80;;;4.80;;
21354;SDS011;10835;50.148;19.760;2022-12-18T00:42:19;17.27;;;6.60;;
21354;SDS011;10835;50.148;19.760;2022-12-18T00:45:05;17.05;;;8.35;;
21354;SDS011;10835;50.148;19.760;2022-12-18T00:47:38;17.75;;;7.90;;
21354;SDS011;10835;50.148;19.760;2022-12-18T00:50:07;9.75;;;3.63;;
21354;SDS011;10835;50.148;19.760;2022-12-18T00:52:36;10.60;;;4.60;;
21354;SDS011;10835;50.148;19.760;2022-12-18T00:55:08;20.08;;;9.02;;
21354;SDS011;10835;50.148;19.760;2022-12-18T00:57:36;19.90;;;7.03;;
21354;SDS011;10835;50.148;19.760;2022-12-18T01:00:06;19.17;;;6.53;;
21354;SDS011;10835;50.148;19.760;2022-12-18T01:02:36;21.55;;;7.82;;
21354;SDS011;10835;50.148;19.760;2022-12-18T01:05:06;14.10;;;7.20;;
21354;SDS011;10835;50.148;19.760;2022-12-18T01:07:35;17.65;;;7.95;;
21354;SDS011;10835;50.148;19.760;2022-12-18T01:10:03;15.48;;;7.20;;
21354;SDS011;10835;50.148;19.760;2022-12-18T01:12:37;24.63;;;6.65;;
21354;SDS011;10835;50.148;19.760;2022-12-18T01:15:05;22.60;;;9.70;;
21354;SDS011;10835;50.148;19.760;2022-12-18T01:17:36;10.23;;;4.45;;
21354;SDS011;10835;50.148;19.760;2022-12-18T01:20:06;16.20;;;5.35;;
21354;SDS011;10835;50.148;19.760;2022-12-18T01:22:37;20.13;;;7.03;;
21354;SDS011;10835;50.148;19.760;2022-12-18T01:25:08;22.75;;;6.88;;
21354;SDS011;10835;50.148;19.760;2022-12-18T01:27:37;19.55;;;7.28;;
21354;SDS011;10835;50.148;19.760;2022-12-18T01:30:08;14.45;;;6.70;;
21354;SDS011;10835;50.148;19.760;2022-12-18T01:32:37;21.00;;;7.25;;
21354;SDS011;10835;50.148;19.760;2022-12-18T01:35:05;15.25;;;7.22;;
21354;SDS011;10835;50.148;19.760;2022-12-18T01:37:34;23.40;;;8.02;;
21354;SDS011;10835;50.148;19.760;2022-12-18T01:40:02;22.98;;;8.73;;
21354;SDS011;10835;50.148;19.760;2022-12-18T01:42:34;12.38;;;5.60;;
21354;SDS011;10835;50.148;19.760;2022-12-18T01:45:05;11.02;;;5.55;;
21354;SDS011;10835;50.148;19.760;2022-12-18T01:47:49;16.25;;;6.65;;
21354;SDS011;10835;50.148;19.760;2022-12-18T01:50:21;24.77;;;6.50;;
21354;SDS011;10835;50.148;19.760;2022-12-18T01:52:53;12.23;;;6.03;;
21354;SDS011;10835;50.148;19.760;2022-12-18T01:55:24;25.23;;;7.93;;
21354;SDS011;10835;50.148;19.760;2022-12-18T01:57:57;13.45;;;6.90;;
21354;SDS011;10835;50.148;19.760;2022-12-18T02:00:27;20.50;;;6.90;;
21354;SDS011;10835;50.148;19.760;2022-12-18T02:02:57;16.13;;;6.97;;
21354;SDS011;10835;50.148;19.760;2022-12-18T02:05:29;13.45;;;5.82;;
21354;SDS011;10835;50.148;19.760;2022-12-18T02:08:07;14.85;;;5.97;;
21354;SDS011;10835;50.148;19.760;2022-12-18T02:10:41;15.93;;;7.20;;
21354;SDS011;10835;50.148;19.760;2022-12-18T02:13:20;12.98;;;6.35;;
21354;SDS011;10835;50.148;19.760;2022-12-18T02:15:57;10.30;;;5.13;;
21354;SDS011;10835;50.148;19.760;2022-12-18T02:18:30;15.90;;;5.57;;
21354;SDS011;10835;50.148;19.760;2022-12-18T02:21:04;13.13;;;4.82;;
21354;SDS011;10835;50.148;19.760;2022-12-18T02:23:46;11.80;;;6.75;;
21354;SDS011;10835;50.148;19.760;2022-12-18T02:26:19;22.85;;;6.55;;
21354;SDS011;10835;50.148;19.760;2022-12-18T02:28:52;19.73;;;7.30;;
21354;SDS011;10835;50.148;19.760;2022-12-18T02:31:27;9.05;;;5.22;;
21354;SDS011;10835;50.148;19.760;2022-12-18T02:33:58;11.68;;;5.05;;
21354;SDS011;10835;50.148;19.760;2022-12-18T02:36:34;10.63;;;5.47;;
21354;SDS011;10835;50.148;19.760;2022-12-18T02:39:05;23.10;;;8.73;;
21354;SDS011;10835;50.148;19.760;2022-12-18T02:41:42;25.45;;;8.95;;
21354;SDS011;10835;50.148;19.760;2022-12-18T02:44:11;15.75;;;6.57;;
21354;SDS011;10835;50.148;19.760;2022-12-18T02:46:43;23.70;;;8.23;;
21354;SDS011;10835;50.148;19.760;2022-12-18T02:49:19;17.92;;;8.50;;
21354;SDS011;10835;50.148;19.760;2022-12-18T02:52:00;20.02;;;6.68;;
21354;SDS011;10835;50.148;19.760;2022-12-18T02:54:36;23.63;;;7.68;;
21354;SDS011;10835;50.148;19.760;2022-12-18T02:57:16;21.13;;;8.85;;
21354;SDS011;10835;50.148;19.760;2022-12-18T02:59:55;19.42;;;7.72;;
21354;SDS011;10835;50.148;19.760;2022-12-18T03:02:26;17.50;;;7.10;;
21354;SDS011;10835;50.148;19.760;2022-12-18T03:05:04;18.65;;;7.82;;
21354;SDS011;10835;50.148;19.760;2022-12-18T03:07:39;19.45;;;7.68;;
21354;SDS011;10835;50.148;19.760;2022-12-18T03:10:13;17.35;;;6.70;;
21354;SDS011;10835;50.148;19.760;2022-12-18T03:12:49;20.92;;;9.32;;
21354;SDS011;10835;50.148;19.760;2022-12-18T03:15:21;14.70;;;5.35;;
21354;SDS011;10835;50.148;19.760;2022-12-18T03:17:59;8.68;;;5.07;;
21354;SDS011;10835;50.148;19.760;2022-12-18T03:20:32;12.30;;;4.78;;
21354;SDS011;10835;50.148;19.760;2022-12-18T03:23:04;18.27;;;5.90;;
21354;SDS011;10835;50.148;19.760;2022-12-18T03:25:37;15.25;;;5.78;;
21354;SDS011;10835;50.148;19.760;2022-12-18T03:28:10;21.33;;;6.22;;
21354;SDS011;10835;50.148;19.760;2022-12-18T03:30:44;24.00;;;9.85;;
21354;SDS011;10835;50.148;19.760;2022-12-18T03:33:15;14.25;;;5.63;;
21354;SDS011;10835;50.148;19.760;2022-12-18T03:35:49;25.98;;;8.27;;
21354;SDS011;10835;50.148;19.760;2022-12-18T03:38:17;23.85;;;7.05;;
21354;SDS011;10835;50.148;19.760;2022-12-18T03:40:53;20.40;;;7.20;;
21354;SDS011;10835;50.148;19.760;2022-12-18T03:43:33;22.05;;;8.48;;
21354;SDS011;10835;50.148;19.760;2022-12-18T03:46:10;24.45;;;6.20;;
21354;SDS011;10835;50.148;19.760;2022-12-18T03:48:44;31.52;;;9.52;;
21354;SDS011;10835;50.148;19.760;2022-12-18T03:51:20;22.98;;;8.10;;
21354;SDS011;10835;50.148;19.760;2022-12-18T03:53:57;29.00;;;9.05;;
21354;SDS011;10835;50.148;19.760;2022-12-18T03:56:36;26.80;;;9.73;;
21354;SDS011;10835;50.148;19.760;2022-12-18T03:59:10;13.32;;;5.32;;
21354;SDS011;10835;50.148;19.760;2022-12-18T04:01:42;25.75;;;8.35;;
21354;SDS011;10835;50.148;19.760;2022-12-18T04:04:14;25.10;;;9.55;;
21354;SDS011;10835;50.148;19.760;2022-12-18T04:06:45;19.25;;;6.95;;
21354;SDS011;10835;50.148;19.760;2022-12-18T04:09:17;25.63;;;9.48;;
21354;SDS011;10835;50.148;19.760;2022-12-18T04:11:47;26.73;;;9.45;;
21354;SDS011;10835;50.148;19.760;2022-12-18T04:14:17;20.17;;;7.40;;
21354;SDS011;10835;50.148;19.760;2022-12-18T04:16:50;26.63;;;9.38;;
21354;SDS011;10835;50.148;19.760;2022-12-18T04:19:28;26.90;;;8.93;;
21354;SDS011;10835;50.148;19.760;2022-12-18T04:21:57;27.90;;;8.88;;
21354;SDS011;10835;50.148;19.760;2022-12-18T04:24:26;21.23;;;8.55;;
21354;SDS011;10835;50.148;19.760;2022-12-18T04:27:05;19.63;;;6.45;;
21354;SDS011;10835;50.148;19.760;2022-12-18T04:29:41;22.77;;;8.93;;
21354;SDS011;10835;50.148;19.760;2022-12-18T04:32:09;25.33;;;9.32;;
21354;SDS011;10835;50.148;19.760;2022-12-18T04:34:38;11.00;;;4.72;;
21354;SDS011;10835;50.148;19.760;2022-12-18T04:37:06;25.70;;;9.07;;
21354;SDS011;10835;50.148;19.760;2022-12-18T04:39:34;17.63;;;7.93;;
21354;SDS011;10835;50.148;19.760;2022-12-18T04:42:08;23.23;;;9.02;;
21354;SDS011;10835;50.148;19.760;2022-12-18T04:44:36;22.77;;;7.28;;
21354;SDS011;10835;50.148;19.760;2022-12-18T04:47:05;22.50;;;7.78;;
21354;SDS011;10835;50.148;19.760;2022-12-18T04:49:33;29.92;;;10.07;;
21354;SDS011;10835;50.148;19.760;2022-12-18T04:52:01;27.63;;;9.10;;
21354;SDS011;10835;50.148;19.760;2022-12-18T04:54:29;16.45;;;7.55;;
21354;SDS011;10835;50.148;19.760;2022-12-18T04:56:57;27.13;;;9.13;;
21354;SDS011;10835;50.148;19.760;2022-12-18T04:59:25;23.70;;;8.95;;
21354;SDS011;10835;50.148;19.760;2022-12-18T05:01:53;20.17;;;8.40;;
21354;SDS011;10835;50.148;19.760;2022-12-18T05:04:23;10.05;;;6.40;;
21354;SDS011;10835;50.148;19.760;2022-12-18T05:06:51;21.17;;;10.10;;
21354;SDS011;10835;50.148;19.760;2022-12-18T05:09:19;27.63;;;9.20;;
21354;SDS011;10835;50.148;19.760;2022-12-18T05:11:47;26.75;;;9.45;;
21354;SDS011;10835;50.148;19.760;2022-12-18T05:14:15;28.20;;;9.88;;
21354;SDS011;10835;50.148;19.760;2022-12-18T05:16:43;24.40;;;8.32;;
21354;SDS011;10835;50.148;19.760;2022-12-18T05:19:11;17.35;;;8.93;;
21354;SDS011;10835;50.148;19.760;2022-12-18T05:21:40;14.93;;;6.32;;
21354;SDS011;10835;50.148;19.760;2022-12-18T05:24:08;31.88;;;11.65;;
21354;SDS011;10835;50.148;19.760;2022-12-18T05:26:36;18.65;;;8.82;;
21354;SDS011;10835;50.148;19.760;2022-12-18T05:29:04;21.83;;;8.45;;
21354;SDS011;10835;50.148;19.760;2022-12-18T05:31:32;8.98;;;5.07;;
21354;SDS011;10835;50.148;19.760;2022-12-18T05:34:05;20.67;;;8.98;;
21354;SDS011;10835;50.148;19.760;2022-12-18T05:36:35;20.15;;;8.05;;
21354;SDS011;10835;50.148;19.760;2022-12-18T05:39:05;19.13;;;9.73;;
21354;SDS011;10835;50.148;19.760;2022-12-18T05:41:33;13.93;;;6.97;;
21354;SDS011;10835;50.148;19.760;2022-12-18T05:44:01;33.55;;;9.35;;
21354;SDS011;10835;50.148;19.760;2022-12-18T05:46:32;19.88;;;7.88;;
21354;SDS011;10835;50.148;19.760;2022-12-18T05:49:01;16.50;;;7.35;;
21354;SDS011;10835;50.148;19.760;2022-12-18T05:51:29;22.05;;;8.77;;
21354;SDS011;10835;50.148;19.760;2022-12-18T05:53:57;26.20;;;9.43;;
21354;SDS011;10835;50.148;19.760;2022-12-18T05:56:29;25.83;;;9.30;;
21354;SDS011;10835;50.148;19.760;2022-12-18T05:58:57;18.00;;;7.55;;
21354;SDS011;10835;50.148;19.760;2022-12-18T06:01:26;22.48;;;7.82;;
21354;SDS011;10835;50.148;19.760;2022-12-18T06:03:54;27.15;;;10.57;;
21354;SDS011;10835;50.148;19.760;2022-12-18T06:06:23;22.35;;;9.70;;
21354;SDS011;10835;50.148;19.760;2022-12-18T06:08:52;24.58;;;10.30;;
21354;SDS011;10835;50.148;19.760;2022-12-18T06:11:22;20.55;;;8.10;;
21354;SDS011;10835;50.148;19.760;2022-12-18T06:13:54;16.27;;;8.40;;
21354;SDS011;10835;50.148;19.760;2022-12-18T06:16:26;19.73;;;7.85;;
21354;SDS011;10835;50.148;19.760;2022-12-18T06:18:55;27.13;;;9.48;;
21354;SDS011;10835;50.148;19.760;2022-12-18T06:21:24;27.95;;;9.75;;
21354;SDS011;10835;50.148;19.760;2022-12-18T06:23:55;37.08;;;9.77;;
21354;SDS011;10835;50.148;19.760;2022-12-18T06:26:23;23.55;;;9.15;;
21354;SDS011;10835;50.148;19.760;2022-12-18T06:28:55;19.58;;;8.82;;
21354;SDS011;10835;50.148;19.760;2022-12-18T06:31:24;20.83;;;8.57;;
21354;SDS011;10835;50.148;19.760;2022-12-18T06:33:52;24.77;;;8.88;;
21354;SDS011;10835;50.148;19.760;2022-12-18T06:36:20;32.80;;;9.68;;
21354;SDS011;10835;50.148;19.760;2022-12-18T06:38:48;31.13;;;11.00;;
21354;SDS011;10835;50.148;19.760;2022-12-18T06:41:17;28.40;;;9.77;;
21354;SDS011;10835;50.148;19.760;2022-12-18T06:43:49;23.05;;;9.18;;
21354;SDS011;10835;50.148;19.760;2022-12-18T06:46:25;25.33;;;11.23;;
21354;SDS011;10835;50.148;19.760;2022-12-18T06:48:53;30.13;;;11.25;;
21354;SDS011;10835;50.148;19.760;2022-12-18T06:51:21;26.27;;;10.57;;
21354;SDS011;10835;50.148;19.760;2022-12-18T06:53:50;33.95;;;11.57;;
21354;SDS011;10835;50.148;19.760;2022-12-18T06:56:18;15.65;;;7.68;;
21354;SDS011;10835;50.148;19.760;2022-12-18T06:58:46;33.47;;;11.55;;
21354;SDS011;10835;50.148;19.760;2022-12-18T07:01:14;22.65;;;8.45;;
21354;SDS011;10835;50.148;19.760;2022-12-18T07:03:43;24.15;;;7.00;;
21354;SDS011;10835;50.148;19.760;2022-12-18T07:06:14;29.60;;;10.05;;
21354;SDS011;10835;50.148;19.760;2022-12-18T07:08:43;12.05;;;6.00;;
21354;SDS011;10835;50.148;19.760;2022-12-18T07:11:12;30.40;;;12.68;;
21354;SDS011;10835;50.148;19.760;2022-12-18T07:13:40;27.15;;;10.30;;
21354;SDS011;10835;50.148;19.760;2022-12-18T07:16:09;24.08;;;10.75;;
21354;SDS011;10835;50.148;19.760;2022-12-18T07:18:49;24.40;;;8.10;;
21354;SDS011;10835;50.148;19.760;2022-12-18T07:21:18;26.27;;;9.05;;
21354;SDS011;10835;50.148;19.760;2022-12-18T07:23:46;27.30;;;9.25;;
21354;SDS011;10835;50.148;19.760;2022-12-18T07:26:15;28.80;;;9.13;;
21354;SDS011;10835;50.148;19.760;2022-12-18T07:28:45;25.00;;;9.98;;
21354;SDS011;10835;50.148;19.760;2022-12-18T07:31:15;30.60;;;10.23;;
21354;SDS011;10835;50.148;19.760;2022-12-18T07:33:44;27.73;;;9.88;;
21354;SDS011;10835;50.148;19.760;2022-12-18T07:36:14;17.20;;;8.15;;
21354;SDS011;10835;50.148;19.760;2022-12-18T07:38:42;25.02;;;9.57;;
21354;SDS011;10835;50.148;19.760;2022-12-18T07:41:11;23.23;;;10.00;;
21354;SDS011;10835;50.148;19.760;2022-12-18T07:43:40;16.83;;;6.30;;
21354;SDS011;10835;50.148;19.760;2022-12-18T07:46:10;18.52;;;8.38;;
21354;SDS011;10835;50.148;19.760;2022-12-18T07:48:41;23.95;;;8.70;;
21354;SDS011;10835;50.148;19.760;2022-12-18T07:51:15;22.35;;;8.15;;
21354;SDS011;10835;50.148;19.760;2022-12-18T07:53:44;23.90;;;10.68;;
21354;SDS011;10835;50.148;19.760;2022-12-18T07:56:17;24.45;;;8.98;;
21354;SDS011;10835;50.148;19.760;2022-12-18T07:58:56;24.77;;;9.10;;
21354;SDS011;10835;50.148;19.760;2022-12-18T08:01:25;21.77;;;8.90;;
21354;SDS011;10835;50.148;19.760;2022-12-18T08:03:53;20.42;;;8.60;;
21354;SDS011;10835;50.148;19.760;2022-12-18T08:06:23;17.05;;;7.05;;
21354;SDS011;10835;50.148;19.760;2022-12-18T08:08:52;16.75;;;7.32;;
21354;SDS011;10835;50.148;19.760;2022-12-18T08:11:20;24.05;;;8.05;;
21354;SDS011;10835;50.148;19.760;2022-12-18T08:13:49;26.15;;;9.80;;
21354;SDS011;10835;50.148;19.760;2022-12-18T08:16:17;28.15;;;10.80;;
21354;SDS011;10835;50.148;19.760;2022-12-18T08:18:46;32.65;;;9.65;;
21354;SDS011;10835;50.148;19.760;2022-12-18T08:21:16;24.38;;;10.90;;
21354;SDS011;10835;50.148;19.760;2022-12-18T08:23:49;36.03;;;11.93;;
21354;SDS011;10835;50.148;19.760;2022-12-18T08:26:18;36.53;;;11.90;;
21354;SDS011;10835;50.148;19.760;2022-12-18T08:28:47;24.83;;;10.52;;
21354;SDS011;10835;50.148;19.760;2022-12-18T08:31:16;31.20;;;11.73;;
21354;SDS011;10835;50.148;19.760;2022-12-18T08:33:44;44.08;;;13.02;;
21354;SDS011;10835;50.148;19.760;2022-12-18T08:36:15;27.63;;;11.07;;
21354;SDS011;10835;50.148;19.760;2022-12-18T08:38:43;32.60;;;11.30;;
21354;SDS011;10835;50.148;19.760;2022-12-18T08:41:14;33.92;;;11.50;;
21354;SDS011;10835;50.148;19.760;2022-12-18T08:43:43;33.28;;;10.32;;
21354;SDS011;10835;50.148;19.760;2022-12-18T08:46:31;35.20;;;13.48;;
21354;SDS011;10835;50.148;19.760;2022-12-18T08:49:02;34.47;;;11.57;;
21354;SDS011;10835;50.148;19.760;2022-12-18T08:51:30;23.35;;;8.43;;
21354;SDS011;10835;50.148;19.760;2022-12-18T08:53:58;28.85;;;10.90;;
21354;SDS011;10835;50.148;19.760;2022-12-18T08:56:28;26.15;;;9.70;;
21354;SDS011;10835;50.148;19.760;2022-12-18T08:58:57;34.00;;;11.68;;
21354;SDS011;10835;50.148;19.760;2022-12-18T09:01:25;23.20;;;9.63;;
21354;SDS011;10835;50.148;19.760;2022-12-18T09:03:53;30.25;;;11.85;;
21354;SDS011;10835;50.148;19.760;2022-12-18T09:06:22;33.90;;;11.48;;
21354;SDS011;10835;50.148;19.760;2022-12-18T09:08:50;33.33;;;11.57;;
21354;SDS011;10835;50.148;19.760;2022-12-18T09:11:19;27.92;;;9.95;;
21354;SDS011;10835;50.148;19.760;2022-12-18T09:13:50;39.38;;;11.82;;
21354;SDS011;10835;50.148;19.760;2022-12-18T09:16:20;36.33;;;11.15;;
21354;SDS011;10835;50.148;19.760;2022-12-18T09:18:56;23.23;;;10.55;;
21354;SDS011;10835;50.148;19.760;2022-12-18T09:21:27;22.60;;;9.73;;
21354;SDS011;10835;50.148;19.760;2022-12-18T09:23:56;28.95;;;11.98;;
21354;SDS011;10835;50.148;19.760;2022-12-18T09:26:26;36.40;;;12.30;;
21354;SDS011;10835;50.148;19.760;2022-12-18T09:28:58;34.97;;;12.18;;
21354;SDS011;10835;50.148;19.760;2022-12-18T09:31:26;29.52;;;10.82;;
21354;SDS011;10835;50.148;19.760;2022-12-18T09:33:54;29.40;;;10.65;;
21354;SDS011;10835;50.148;19.760;2022-12-18T09:36:26;16.00;;;7.13;;
21354;SDS011;10835;50.148;19.760;2022-12-18T09:38:54;22.23;;;9.75;;
21354;SDS011;10835;50.148;19.760;2022-12-18T09:41:33;32.92;;;11.93;;
21354;SDS011;10835;50.148;19.760;2022-12-18T09:44:15;36.13;;;9.60;;
21354;SDS011;10835;50.148;19.760;2022-12-18T09:46:49;25.92;;;9.13;;
21354;SDS011;10835;50.148;19.760;2022-12-18T09:49:23;22.48;;;8.43;;
21354;SDS011;10835;50.148;19.760;2022-12-18T09:51:54;31.92;;;11.55;;
21354;SDS011;10835;50.148;19.760;2022-12-18T09:54:25;20.25;;;8.48;;
21354;SDS011;10835;50.148;19.760;2022-12-18T09:56:57;22.05;;;8.07;;
21354;SDS011;10835;50.148;19.760;2022-12-18T09:59:30;25.38;;;8.60;;
21354;SDS011;10835;50.148;19.760;2022-12-18T10:02:11;20.30;;;7.53;;
21354;SDS011;10835;50.148;19.760;2022-12-18T10:04:42;14.50;;;5.28;;
21354;SDS011;10835;50.148;19.760;2022-12-18T10:07:13;7.07;;;3.80;;
21354;SDS011;10835;50.148;19.760;2022-12-18T10:09:48;15.18;;;5.90;;
21354;SDS011;10835;50.148;19.760;2022-12-18T10:12:27;12.45;;;5.45;;
21354;SDS011;10835;50.148;19.760;2022-12-18T10:15:04;22.33;;;7.32;;
21354;SDS011;10835;50.148;19.760;2022-12-18T10:17:39;17.17;;;6.05;;
21354;SDS011;10835;50.148;19.760;2022-12-18T10:20:14;17.52;;;6.20;;
21354;SDS011;10835;50.148;19.760;2022-12-18T10:22:50;13.70;;;5.28;;
21354;SDS011;10835;50.148;19.760;2022-12-18T10:25:28;17.65;;;5.85;;
21354;SDS011;10835;50.148;19.760;2022-12-18T10:28:07;20.10;;;6.28;;
21354;SDS011;10835;50.148;19.760;2022-12-18T10:30:41;21.20;;;6.38;;
21354;SDS011;10835;50.148;19.760;2022-12-18T10:33:10;21.75;;;6.97;;
21354;SDS011;10835;50.148;19.760;2022-12-18T10:35:40;13.90;;;6.70;;
21354;SDS011;10835;50.148;19.760;2022-12-18T10:38:20;20.23;;;7.15;;
21354;SDS011;10835;50.148;19.760;2022-12-18T10:40:51;15.20;;;6.18;;
21354;SDS011;10835;50.148;19.760;2022-12-18T10:43:22;17.42;;;6.40;;
21354;SDS011;10835;50.148;19.760;2022-12-18T10:46:00;16.00;;;6.15;;
21354;SDS011;10835;50.148;19.760;2022-12-18T10:48:39;18.75;;;5.90;;
21354;SDS011;10835;50.148;19.760;2022-12-18T10:51:19;17.88;;;7.70;;
21354;SDS011;10835;50.148;19.760;2022-12-18T10:53:51;15.25;;;6.18;;
21354;SDS011;10835;50.148;19.760;2022-12-18T10:56:24;23.15;;;6.75;;
21354;SDS011;10835;50.148;19.760;2022-12-18T10:58:58;18.98;;;6.80;;
21354;SDS011;10835;50.148;19.760;2022-12-18T11:01:29;18.95;;;5.63;;
21354;SDS011;10835;50.148;19.760;2022-12-18T11:04:16;15.60;;;6.40;;
21354;SDS011;10835;50.148;19.760;2022-12-18T11:06:53;15.25;;;5.40;;
21354;SDS011;10835;50.148;19.760;2022-12-18T11:09:23;20.80;;;6.68;;
21354;SDS011;10835;50.148;19.760;2022-12-18T11:11:53;21.73;;;5.90;;
21354;SDS011;10835;50.148;19.760;2022-12-18T11:14:23;16.42;;;6.03;;
21354;SDS011;10835;50.148;19.760;2022-12-18T11:16:54;19.55;;;7.75;;
21354;SDS011;10835;50.148;19.760;2022-12-18T11:19:44;19.85;;;6.35;;
21354;SDS011;10835;50.148;19.760;2022-12-18T11:22:19;13.05;;;5.68;;
21354;SDS011;10835;50.148;19.760;2022-12-18T11:24:55;19.85;;;5.85;;
21354;SDS011;10835;50.148;19.760;2022-12-18T11:27:49;10.85;;;4.57;;
21354;SDS011;10835;50.148;19.760;2022-12-18T11:30:23;18.83;;;6.25;;
21354;SDS011;10835;50.148;19.760;2022-12-18T11:32:54;18.08;;;6.05;;
21354;SDS011;10835;50.148;19.760;2022-12-18T11:35:30;22.23;;;6.85;;
21354;SDS011;10835;50.148;19.760;2022-12-18T11:38:06;17.42;;;6.85;;
21354;SDS011;10835;50.148;19.760;2022-12-18T11:40:42;17.55;;;6.70;;
21354;SDS011;10835;50.148;19.760;2022-12-18T11:43:14;16.27;;;6.72;;
21354;SDS011;10835;50.148;19.760;2022-12-18T11:45:47;20.65;;;5.82;;
21354;SDS011;10835;50.148;19.760;2022-12-18T11:48:22;19.10;;;6.20;;
21354;SDS011;10835;50.148;19.760;2022-12-18T11:50:54;12.63;;;5.07;;
21354;SDS011;10835;50.148;19.760;2022-12-18T11:53:24;14.32;;;5.25;;
21354;SDS011;10835;50.148;19.760;2022-12-18T11:56:00;16.30;;;5.30;;
21354;SDS011;10835;50.148;19.760;2022-12-18T11:58:37;13.88;;;5.32;;
21354;SDS011;10835;50.148;19.760;2022-12-18T12:01:20;18.00;;;5.70;;
21354;SDS011;10835;50.148;19.760;2022-12-18T12:04:14;14.80;;;5.85;;
21354;SDS011;10835;50.148;19.760;2022-12-18T12:07:02;14.95;;;5.68;;
21354;SDS011;10835;50.148;19.760;2022-12-18T12:09:43;16.13;;;5.88;;
21354;SDS011;10835;50.148;19.760;2022-12-18T12:12:23;19.15;;;6.13;;
21354;SDS011;10835;50.148;19.760;2022-12-18T12:15:17;20.08;;;5.35;;
21354;SDS011;10835;50.148;19.760;2022-12-18T12:17:56;14.32;;;6.32;;
21354;SDS011;10835;50.148;19.760;2022-12-18T12:20:41;16.77;;;5.30;;
21354;SDS011;10835;50.148;19.760;2022-12-18T12:23:16;17.75;;;5.80;;
21354;SDS011;10835;50.148;19.760;2022-12-18T12:25:55;15.68;;;5.90;;
21354;SDS011;10835;50.148;19.760;2022-12-18T12:28:31;14.93;;;5.75;;
21354;SDS011;10835;50.148;19.760;2022-12-18T12:31:14;19.85;;;7.30;;
21354;SDS011;10835;50.148;19.760;2022-12-18T12:33:52;16.45;;;6.28;;
21354;SDS011;10835;50.148;19.760;2022-12-18T12:36:32;16.42;;;5.53;;
21354;SDS011;10835;50.148;19.760;2022-12-18T12:39:10;20.70;;;5.57;;
21354;SDS011;10835;50.148;19.760;2022-12-18T12:41:42;17.83;;;4.95;;
21354;SDS011;10835;50.148;19.760;2022-12-18T12:44:30;17.92;;;5.80;;
21354;SDS011;10835;50.148;19.760;2022-12-18T12:47:04;21.45;;;6.43;;
21354;SDS011;10835;50.148;19.760;2022-12-18T12:49:40;14.15;;;6.15;;
21354;SDS011;10835;50.148;19.760;2022-12-18T12:52:17;19.85;;;5.80;;
21354;SDS011;10835;50.148;19.760;2022-12-18T12:54:54;16.73;;;5.90;;
21354;SDS011;10835;50.148;19.760;2022-12-18T12:57:23;17.48;;;5.38;;
21354;SDS011;10835;50.148;19.760;2022-12-18T12:59:59;11.77;;;4.75;;
21354;SDS011;10835;50.148;19.760;2022-12-18T13:02:32;18.38;;;5.93;;
21354;SDS011;10835;50.148;19.760;2022-12-18T13:05:09;13.68;;;5.85;;
21354;SDS011;10835;50.148;19.760;2022-12-18T13:07:47;16.60;;;6.72;;
21354;SDS011;10835;50.148;19.760;2022-12-18T13:10:23;16.67;;;6.30;;
21354;SDS011;10835;50.148;19.760;2022-12-18T13:12:55;16.58;;;5.93;;
21354;SDS011;10835;50.148;19.760;2022-12-18T13:15:25;16.45;;;6.10;;
21354;SDS011;10835;50.148;19.760;2022-12-18T13:20:48;18.08;;;6.57;;
21354;SDS011;10835;50.148;19.760;2022-12-18T13:23:39;19.80;;;6.47;;
21354;SDS011;10835;50.148;19.760;2022-12-18T13:29:02;17.33;;;6.70;;
21354;SDS011;10835;50.148;19.760;2022-12-18T13:34:29;18.42;;;6.85;;
21354;SDS011;10835;50.148;19.760;2022-12-18T13:40:01;25.70;;;6.85;;
21354;SDS011;10835;50.148;19.760;2022-12-18T13:42:39;19.38;;;5.95;;
21354;SDS011;10835;50.148;19.760;2022-12-18T13:45:39;21.95;;;6.97;;
21354;SDS011;10835;50.148;19.760;2022-12-18T13:48:21;19.63;;;6.53;;
21354;SDS011;10835;50.148;19.760;2022-12-18T13:50:53;15.30;;;5.50;;
21354;SDS011;10835;50.148;19.760;2022-12-18T13:53:26;17.83;;;6.05;;
21354;SDS011;10835;50.148;19.760;2022-12-18T13:55:58;23.30;;;6.30;;
21354;SDS011;10835;50.148;19.760;2022-12-18T13:58:30;22.38;;;6.68;;
21354;SDS011;10835;50.148;19.760;2022-12-18T14:00:59;12.38;;;6.38;;
21354;SDS011;10835;50.148;19.760;2022-12-18T14:03:29;21.67;;;7.00;;
21354;SDS011;10835;50.148;19.760;2022-12-18T14:06:07;21.42;;;7.88;;
21354;SDS011;10835;50.148;19.760;2022-12-18T14:08:37;27.70;;;9.20;;
21354;SDS011;10835;50.148;19.760;2022-12-18T14:11:12;25.27;;;6.72;;
21354;SDS011;10835;50.148;19.760;2022-12-18T14:13:48;20.77;;;7.15;;
21354;SDS011;10835;50.148;19.760;2022-12-18T14:16:17;25.33;;;8.27;;
21354;SDS011;10835;50.148;19.760;2022-12-18T14:18:45;30.30;;;9.13;;
21354;SDS011;10835;50.148;19.760;2022-12-18T14:21:23;37.55;;;12.45;;
21354;SDS011;10835;50.148;19.760;2022-12-18T14:24:06;36.38;;;12.05;;
21354;SDS011;10835;50.148;19.760;2022-12-18T14:26:44;19.08;;;8.35;;
21354;SDS011;10835;50.148;19.760;2022-12-18T14:29:21;26.65;;;10.10;;
21354;SDS011;10835;50.148;19.760;2022-12-18T14:32:06;31.27;;;10.07;;
21354;SDS011;10835;50.148;19.760;2022-12-18T14:34:43;32.20;;;12.57;;
21354;SDS011;10835;50.148;19.760;2022-12-18T14:37:12;24.83;;;10.68;;
21354;SDS011;10835;50.148;19.760;2022-12-18T14:39:51;38.67;;;14.93;;
21354;SDS011;10835;50.148;19.760;2022-12-18T14:42:21;26.40;;;12.05;;
21354;SDS011;10835;50.148;19.760;2022-12-18T14:48:09;33.67;;;12.57;;
21354;SDS011;10835;50.148;19.760;2022-12-18T14:50:55;30.27;;;11.40;;
21354;SDS011;10835;50.148;19.760;2022-12-18T14:53:28;24.73;;;11.13;;
21354;SDS011;10835;50.148;19.760;2022-12-18T14:56:01;23.70;;;8.77;;
21354;SDS011;10835;50.148;19.760;2022-12-18T14:58:31;28.90;;;10.93;;
21354;SDS011;10835;50.148;19.760;2022-12-18T15:00:59;32.67;;;10.53;;
21354;SDS011;10835;50.148;19.760;2022-12-18T15:03:27;23.77;;;8.93;;